Hanna, IN (46340)

2:22 AM CDT on August 24, 2016 (GMT -0500)
Starke County | | Change Station
Active Advisory: Flood Warning

Elev 686 ft 41.33 °N, 86.66 °W | Updated 7 minutes ago

Overcast
Overcast
66 °F
Feels Like 66 °F
N
6
Wind Variable Wind from South

Today
High -- | Low -- °F
--% Chance of Precip.
Yesterday
High -- | Low -- °F
Precip. -- in
Pressure 30.12 in
Visibility 10.0 miles
Clouds Scattered Clouds 3700 ft
Overcast 7000 ft
Dew Point 45 °F
Humidity 46%
Rainfall 0.00 in
Snow Depth Not available.
6:05 AM 7:32 PM
Waning Gibbous, 60% visible
METAR KOXI 240715Z AUTO 18005KT 10SM SCT037 OVC070 19/07 A3012 RMK AO1
Pressure 30.12 in
Visibility 10.0 miles
Clouds Scattered Clouds 3700 ft
Overcast 7000 ft
Dew Point 45 °F
Humidity 46%
Rainfall 0.00 in
Snow Depth Not available.
6:05 AM 7:32 PM
Waning Gibbous, 60% visible
METAR KOXI 240715Z AUTO 18005KT 10SM SCT037 OVC070 19/07 A3012 RMK AO1

10-Day Weather Forecast

Almanac

Astronomy

Aug. 24, 2016 Rise Set
Actual Time
Civil Twilight
Nautical Twilight
Astronomical Twilight
Moon
Length of Visible Light
Length of Day
Tomorrow will be .
, % of the Moon is Illuminated

Today's Extremes

State Highs State Lows

Community

WunderPhotos

Upload Photos

1,934,554 photos uploaded!

WunderBlog® & News

Nearby

Air Quality

  Air Quality AQ Index Pollutant
Not available.

Snow Depth

Station Depth Elevation

Earthquake Activity

City Distance Mag. Time & Date
Minimum magnitude displayed is 2.5.

Coastal Water Temperatures

Place Temperature

Stations

Nearby Weather Stations

Station Location Temp. Windchill Dew Point Humidity Wind Precip. Elev Updated Type
                   

Watches & Warnings

Flood Warning
Issued: 9:57 PM CDT Aug. 23, 2016 – National Weather Service

the Flood Warning has been extended for
the Kankakee River at Davis
* until Sunday evening.
* At 9 PM Tuesday the stage was 11.8 feet and steady.
* Minor flooding is occurring and minor flooding is forecast.
* Flood stage is 10.0 feet.
* Forecast... the river will fall below the 10.0 foot flood stage
around 7 PM Saturday August 27.
* At 11.0 feet... flooding of secondary roads near the river begins.


Lat... Lon 4145 8667 4144 8661 4130 8673 4131 8679
      4143 8670